sensor_id;sensor_type;location;lat;lon;timestamp;temperature;humidity
32895;DHT22;19251;49.484;8.260;2022-08-06T00:02:05;21.80;17.70
32895;DHT22;19251;49.484;8.260;2022-08-06T00:07:08;21.70;17.90
32895;DHT22;19251;49.484;8.260;2022-08-06T00:12:10;21.40;17.80
32895;DHT22;19251;49.484;8.260;2022-08-06T00:17:12;21.50;18.10
32895;DHT22;19251;49.484;8.260;2022-08-06T00:22:14;21.40;17.70
32895;DHT22;19251;49.484;8.260;2022-08-06T00:27:30;21.30;18.50
32895;DHT22;19251;49.484;8.260;2022-08-06T00:32:40;21.20;18.60
32895;DHT22;19251;49.484;8.260;2022-08-06T00:37:42;21.10;18.70
32895;DHT22;19251;49.484;8.260;2022-08-06T00:43:02;21.00;18.80
32895;DHT22;19251;49.484;8.260;2022-08-06T00:48:10;20.90;18.90
32895;DHT22;19251;49.484;8.260;2022-08-06T00:53:33;20.60;18.20
32895;DHT22;19251;49.484;8.260;2022-08-06T00:58:35;20.60;18.70
32895;DHT22;19251;49.484;8.260;2022-08-06T01:03:42;20.80;19.10
32895;DHT22;19251;49.484;8.260;2022-08-06T01:08:54;20.60;19.40
32895;DHT22;19251;49.484;8.260;2022-08-06T01:13:56;20.70;19.60
32895;DHT22;19251;49.484;8.260;2022-08-06T01:29:54;20.10;19.80
32895;DHT22;19251;49.484;8.260;2022-08-06T01:35:10;20.40;19.60
32895;DHT22;19251;49.484;8.260;2022-08-06T01:40:29;20.10;20.00
32895;DHT22;19251;49.484;8.260;2022-08-06T01:45:36;20.00;20.10
32895;DHT22;19251;49.484;8.260;2022-08-06T01:50:59;20.00;21.00
32895;DHT22;19251;49.484;8.260;2022-08-06T01:56:08;19.80;20.50
32895;DHT22;19251;49.484;8.260;2022-08-06T02:01:13;19.70;20.80
32895;DHT22;19251;49.484;8.260;2022-08-06T02:06:26;19.60;21.00
32895;DHT22;19251;49.484;8.260;2022-08-06T02:11:32;19.60;20.60
32895;DHT22;19251;49.484;8.260;2022-08-06T02:16:57;19.50;21.10
32895;DHT22;19251;49.484;8.260;2022-08-06T02:22:17;19.30;20.90
32895;DHT22;19251;49.484;8.260;2022-08-06T02:27:29;19.10;20.20
32895;DHT22;19251;49.484;8.260;2022-08-06T02:32:45;18.90;20.10
32895;DHT22;19251;49.484;8.260;2022-08-06T02:38:00;19.10;20.90
32895;DHT22;19251;49.484;8.260;2022-08-06T02:43:15;18.80;21.40
32895;DHT22;19251;49.484;8.260;2022-08-06T02:48:33;18.90;20.90
32895;DHT22;19251;49.484;8.260;2022-08-06T02:53:56;18.60;20.80
32895;DHT22;19251;49.484;8.260;2022-08-06T02:59:08;18.70;20.90
32895;DHT22;19251;49.484;8.260;2022-08-06T03:04:12;18.80;21.80
32895;DHT22;19251;49.484;8.260;2022-08-06T03:09:19;18.70;21.80
32895;DHT22;19251;49.484;8.260;2022-08-06T03:14:23;19.00;21.30
32895;DHT22;19251;49.484;8.260;2022-08-06T03:19:47;18.70;20.90
32895;DHT22;19251;49.484;8.260;2022-08-06T03:25:01;18.90;21.70
32895;DHT22;19251;49.484;8.260;2022-08-06T03:30:05;18.70;20.80
32895;DHT22;19251;49.484;8.260;2022-08-06T03:35:08;18.70;21.50
32895;DHT22;19251;49.484;8.260;2022-08-06T03:40:31;18.70;21.50
32895;DHT22;19251;49.484;8.260;2022-08-06T03:45:37;18.60;20.80
32895;DHT22;19251;49.484;8.260;2022-08-06T03:50:57;18.60;21.40
32895;DHT22;19251;49.484;8.260;2022-08-06T03:56:17;18.70;20.80
32895;DHT22;19251;49.484;8.260;2022-08-06T04:01:32;18.50;22.30
32895;DHT22;19251;49.484;8.260;2022-08-06T04:06:45;18.40;21.40
32895;DHT22;19251;49.484;8.260;2022-08-06T04:11:54;18.20;21.30
32895;DHT22;19251;49.484;8.260;2022-08-06T04:17:17;18.20;21.40
32895;DHT22;19251;49.484;8.260;2022-08-06T04:22:22;18.10;21.50
32895;DHT22;19251;49.484;8.260;2022-08-06T04:27:46;18.00;20.80
32895;DHT22;19251;49.484;8.260;2022-08-06T04:32:55;18.00;21.50
32895;DHT22;19251;49.484;8.260;2022-08-06T04:38:03;18.00;21.60
32895;DHT22;19251;49.484;8.260;2022-08-06T04:43:10;17.90;21.20
32895;DHT22;19251;49.484;8.260;2022-08-06T04:48:14;17.80;21.70
32895;DHT22;19251;49.484;8.260;2022-08-06T04:53:22;17.40;21.80
32895;DHT22;19251;49.484;8.260;2022-08-06T04:58:45;17.70;21.20
32895;DHT22;19251;49.484;8.260;2022-08-06T05:03:48;17.70;22.00
32895;DHT22;19251;49.484;8.260;2022-08-06T05:09:20;17.80;21.60
32895;DHT22;19251;49.484;8.260;2022-08-06T05:14:58;17.60;22.50
32895;DHT22;19251;49.484;8.260;2022-08-06T05:20:14;17.70;22.80
32895;DHT22;19251;49.484;8.260;2022-08-06T05:25:32;17.50;22.00
32895;DHT22;19251;49.484;8.260;2022-08-06T05:30:45;17.70;22.50
32895;DHT22;19251;49.484;8.260;2022-08-06T05:35:47;17.90;22.50
32895;DHT22;19251;49.484;8.260;2022-08-06T05:41:10;18.00;22.40
32895;DHT22;19251;49.484;8.260;2022-08-06T05:46:18;18.20;21.40
32895;DHT22;19251;49.484;8.260;2022-08-06T05:56:47;18.70;21.30
32895;DHT22;19251;49.484;8.260;2022-08-06T06:01:55;19.00;21.70
32895;DHT22;19251;49.484;8.260;2022-08-06T06:06:58;19.00;20.70
32895;DHT22;19251;49.484;8.260;2022-08-06T06:12:06;19.60;20.00
32895;DHT22;19251;49.484;8.260;2022-08-06T06:17:16;19.50;19.70
32895;DHT22;19251;49.484;8.260;2022-08-06T06:22:29;20.20;19.70
32895;DHT22;19251;49.484;8.260;2022-08-06T06:27:45;20.20;19.30
32895;DHT22;19251;49.484;8.260;2022-08-06T06:33:14;20.50;19.00
32895;DHT22;19251;49.484;8.260;2022-08-06T06:44:30;21.00;18.50
32895;DHT22;19251;49.484;8.260;2022-08-06T06:50:09;21.30;17.90
32895;DHT22;19251;49.484;8.260;2022-08-06T06:55:31;21.70;17.30
32895;DHT22;19251;49.484;8.260;2022-08-06T07:00:55;21.80;17.10
32895;DHT22;19251;49.484;8.260;2022-08-06T07:06:18;22.00;16.70
32895;DHT22;19251;49.484;8.260;2022-08-06T07:11:44;22.30;15.80
32895;DHT22;19251;49.484;8.260;2022-08-06T07:17:05;22.50;15.80
32895;DHT22;19251;49.484;8.260;2022-08-06T07:22:29;23.00;14.90
32895;DHT22;19251;49.484;8.260;2022-08-06T07:27:42;22.90;15.20
32895;DHT22;19251;49.484;8.260;2022-08-06T07:32:56;22.70;14.90
32895;DHT22;19251;49.484;8.260;2022-08-06T07:38:06;22.80;15.00
32895;DHT22;19251;49.484;8.260;2022-08-06T07:43:25;23.20;14.40
32895;DHT22;19251;49.484;8.260;2022-08-06T07:53:38;23.70;13.70
32895;DHT22;19251;49.484;8.260;2022-08-06T07:59:02;23.40;13.50
32895;DHT22;19251;49.484;8.260;2022-08-06T08:04:08;23.90;13.20
32895;DHT22;19251;49.484;8.260;2022-08-06T08:09:36;23.70;12.60
32895;DHT22;19251;49.484;8.260;2022-08-06T08:15:00;24.10;12.40
32895;DHT22;19251;49.484;8.260;2022-08-06T08:20:06;24.20;12.00
32895;DHT22;19251;49.484;8.260;2022-08-06T08:25:17;24.20;11.40
32895;DHT22;19251;49.484;8.260;2022-08-06T08:30:40;24.10;11.30
32895;DHT22;19251;49.484;8.260;2022-08-06T08:35:43;24.50;10.40
32895;DHT22;19251;49.484;8.260;2022-08-06T08:41:11;24.90;10.20
32895;DHT22;19251;49.484;8.260;2022-08-06T08:46:15;24.90;9.60
32895;DHT22;19251;49.484;8.260;2022-08-06T08:51:35;24.80;9.00
32895;DHT22;19251;49.484;8.260;2022-08-06T08:56:45;24.90;7.50
32895;DHT22;19251;49.484;8.260;2022-08-06T09:02:11;25.10;8.10
32895;DHT22;19251;49.484;8.260;2022-08-06T09:07:15;24.90;7.40
32895;DHT22;19251;49.484;8.260;2022-08-06T09:12:27;25.20;6.70
32895;DHT22;19251;49.484;8.260;2022-08-06T09:17:36;25.30;6.50
32895;DHT22;19251;49.484;8.260;2022-08-06T09:22:59;25.30;6.40
32895;DHT22;19251;49.484;8.260;2022-08-06T09:28:35;25.50;6.50
32895;DHT22;19251;49.484;8.260;2022-08-06T09:33:41;25.60;5.70
32895;DHT22;19251;49.484;8.260;2022-08-06T09:39:04;25.90;5.40
32895;DHT22;19251;49.484;8.260;2022-08-06T09:44:12;25.70;5.30
32895;DHT22;19251;49.484;8.260;2022-08-06T09:49:43;25.80;4.80
32895;DHT22;19251;49.484;8.260;2022-08-06T09:55:01;26.00;4.50
32895;DHT22;19251;49.484;8.260;2022-08-06T10:00:26;26.10;4.70
32895;DHT22;19251;49.484;8.260;2022-08-06T10:05:31;26.40;5.30
32895;DHT22;19251;49.484;8.260;2022-08-06T10:10:52;26.30;4.70
32895;DHT22;19251;49.484;8.260;2022-08-06T10:15:56;26.50;3.30
32895;DHT22;19251;49.484;8.260;2022-08-06T10:21:18;26.50;3.90
32895;DHT22;19251;49.484;8.260;2022-08-06T10:26:33;26.70;3.70
32895;DHT22;19251;49.484;8.260;2022-08-06T10:31:36;26.80;3.80
32895;DHT22;19251;49.484;8.260;2022-08-06T10:41:44;27.10;2.80
32895;DHT22;19251;49.484;8.260;2022-08-06T10:47:03;27.30;2.40
32895;DHT22;19251;49.484;8.260;2022-08-06T10:52:06;27.40;2.10
32895;DHT22;19251;49.484;8.260;2022-08-06T10:57:10;27.40;2.20
32895;DHT22;19251;49.484;8.260;2022-08-06T11:02:48;27.70;1.30
32895;DHT22;19251;49.484;8.260;2022-08-06T11:14:01;27.80;1.00
32895;DHT22;19251;49.484;8.260;2022-08-06T11:19:08;28.10;1.00
32895;DHT22;19251;49.484;8.260;2022-08-06T11:24:12;28.10;1.00
32895;DHT22;19251;49.484;8.260;2022-08-06T11:29:17;28.20;1.00
32895;DHT22;19251;49.484;8.260;2022-08-06T11:34:21;28.40;1.00
32895;DHT22;19251;49.484;8.260;2022-08-06T11:40:05;28.30;1.00
32895;DHT22;19251;49.484;8.260;2022-08-06T11:45:08;28.80;1.00
32895;DHT22;19251;49.484;8.260;2022-08-06T11:50:31;29.00;1.00
32895;DHT22;19251;49.484;8.260;2022-08-06T11:56:02;29.30;1.00
32895;DHT22;19251;49.484;8.260;2022-08-06T12:01:11;29.20;1.00
32895;DHT22;19251;49.484;8.260;2022-08-06T12:06:33;29.90;1.00
32895;DHT22;19251;49.484;8.260;2022-08-06T12:11:36;30.00;1.00
32895;DHT22;19251;49.484;8.260;2022-08-06T12:16:39;29.80;1.00
32895;DHT22;19251;49.484;8.260;2022-08-06T12:21:55;30.20;1.00
32895;DHT22;19251;49.484;8.260;2022-08-06T12:26:58;30.40;1.00
32895;DHT22;19251;49.484;8.260;2022-08-06T12:32:01;30.60;1.00
32895;DHT22;19251;49.484;8.260;2022-08-06T12:37:04;30.40;1.00
32895;DHT22;19251;49.484;8.260;2022-08-06T12:42:23;30.90;1.00
32895;DHT22;19251;49.484;8.260;2022-08-06T12:48:06;31.10;1.00
32895;DHT22;19251;49.484;8.260;2022-08-06T12:53:14;31.40;1.00
32895;DHT22;19251;49.484;8.260;2022-08-06T12:58:34;31.80;1.00
32895;DHT22;19251;49.484;8.260;2022-08-06T13:03:46;32.00;1.00
32895;DHT22;19251;49.484;8.260;2022-08-06T13:08:59;32.10;1.00
32895;DHT22;19251;49.484;8.260;2022-08-06T13:14:09;32.20;1.00
32895;DHT22;19251;49.484;8.260;2022-08-06T13:19:19;32.40;1.00
32895;DHT22;19251;49.484;8.260;2022-08-06T13:24:33;32.50;1.00
32895;DHT22;19251;49.484;8.260;2022-08-06T13:29:36;32.60;1.00
32895;DHT22;19251;49.484;8.260;2022-08-06T13:35:01;32.80;1.00
32895;DHT22;19251;49.484;8.260;2022-08-06T13:40:05;33.00;1.00
32895;DHT22;19251;49.484;8.260;2022-08-06T13:45:27;33.20;1.00
32895;DHT22;19251;49.484;8.260;2022-08-06T13:50:50;33.50;1.00
32895;DHT22;19251;49.484;8.260;2022-08-06T13:55:52;33.80;1.00
32895;DHT22;19251;49.484;8.260;2022-08-06T14:01:13;33.60;1.00
32895;DHT22;19251;49.484;8.260;2022-08-06T14:06:16;34.50;1.00
32895;DHT22;19251;49.484;8.260;2022-08-06T14:11:19;34.80;1.00
32895;DHT22;19251;49.484;8.260;2022-08-06T14:16:22;35.30;1.00
32895;DHT22;19251;49.484;8.260;2022-08-06T14:21:25;35.80;1.00
32895;DHT22;19251;49.484;8.260;2022-08-06T14:26:28;36.40;1.00
32895;DHT22;19251;49.484;8.260;2022-08-06T14:31:31;36.90;1.00
32895;DHT22;19251;49.484;8.260;2022-08-06T14:36:54;37.30;1.00
32895;DHT22;19251;49.484;8.260;2022-08-06T14:41:56;37.80;1.00
32895;DHT22;19251;49.484;8.260;2022-08-06T14:47:17;38.30;1.00
32895;DHT22;19251;49.484;8.260;2022-08-06T14:52:39;38.90;1.00
32895;DHT22;19251;49.484;8.260;2022-08-06T14:57:44;39.50;1.00
32895;DHT22;19251;49.484;8.260;2022-08-06T15:03:07;40.00;1.00
32895;DHT22;19251;49.484;8.260;2022-08-06T15:08:16;40.60;1.00
32895;DHT22;19251;49.484;8.260;2022-08-06T15:13:18;41.30;1.00
32895;DHT22;19251;49.484;8.260;2022-08-06T15:18:21;42.00;1.00
32895;DHT22;19251;49.484;8.260;2022-08-06T15:23:44;42.40;1.00
32895;DHT22;19251;49.484;8.260;2022-08-06T15:28:55;42.90;1.00
32895;DHT22;19251;49.484;8.260;2022-08-06T15:34:00;43.40;1.00
32895;DHT22;19251;49.484;8.260;2022-08-06T15:39:08;43.80;1.00
32895;DHT22;19251;49.484;8.260;2022-08-06T15:44:11;44.20;1.00
32895;DHT22;19251;49.484;8.260;2022-08-06T15:49:13;44.50;1.00
32895;DHT22;19251;49.484;8.260;2022-08-06T15:54:27;44.90;1.00
32895;DHT22;19251;49.484;8.260;2022-08-06T15:59:29;45.00;1.00
32895;DHT22;19251;49.484;8.260;2022-08-06T16:04:51;45.10;1.00
32895;DHT22;19251;49.484;8.260;2022-08-06T16:09:55;45.00;1.00
32895;DHT22;19251;49.484;8.260;2022-08-06T16:15:05;44.90;1.00
32895;DHT22;19251;49.484;8.260;2022-08-06T16:20:11;44.90;1.00
32895;DHT22;19251;49.484;8.260;2022-08-06T16:25:23;44.90;1.00
32895;DHT22;19251;49.484;8.260;2022-08-06T16:30:47;44.80;1.00
32895;DHT22;19251;49.484;8.260;2022-08-06T16:36:14;44.70;1.00
32895;DHT22;19251;49.484;8.260;2022-08-06T16:41:17;44.40;1.00
32895;DHT22;19251;49.484;8.260;2022-08-06T16:46:25;43.40;1.00
32895;DHT22;19251;49.484;8.260;2022-08-06T16:51:27;41.60;1.00
32895;DHT22;19251;49.484;8.260;2022-08-06T16:56:51;39.90;1.00
32895;DHT22;19251;49.484;8.260;2022-08-06T17:01:53;38.30;1.00
32895;DHT22;19251;49.484;8.260;2022-08-06T17:07:23;37.10;1.00
32895;DHT22;19251;49.484;8.260;2022-08-06T17:12:47;34.80;1.00
32895;DHT22;19251;49.484;8.260;2022-08-06T17:17:59;34.70;1.00
32895;DHT22;19251;49.484;8.260;2022-08-06T17:23:02;33.90;1.00
32895;DHT22;19251;49.484;8.260;2022-08-06T17:28:08;33.20;1.00
32895;DHT22;19251;49.484;8.260;2022-08-06T17:33:15;32.60;1.00
32895;DHT22;19251;49.484;8.260;2022-08-06T17:38:18;32.10;1.00
32895;DHT22;19251;49.484;8.260;2022-08-06T17:43:21;31.70;1.00
32895;DHT22;19251;49.484;8.260;2022-08-06T17:48:45;31.20;1.00
32895;DHT22;19251;49.484;8.260;2022-08-06T17:53:50;31.00;1.00
32895;DHT22;19251;49.484;8.260;2022-08-06T17:58:55;30.50;1.00
32895;DHT22;19251;49.484;8.260;2022-08-06T18:04:22;30.30;1.00
32895;DHT22;19251;49.484;8.260;2022-08-06T18:09:35;29.90;1.00
32895;DHT22;19251;49.484;8.260;2022-08-06T18:14:58;29.70;1.00
32895;DHT22;19251;49.484;8.260;2022-08-06T18:20:01;29.40;1.00
32895;DHT22;19251;49.484;8.260;2022-08-06T18:25:03;29.20;1.00
32895;DHT22;19251;49.484;8.260;2022-08-06T18:30:12;28.90;1.00
32895;DHT22;19251;49.484;8.260;2022-08-06T18:35:34;28.70;1.00
32895;DHT22;19251;49.484;8.260;2022-08-06T18:40:56;28.40;1.00
32895;DHT22;19251;49.484;8.260;2022-08-06T18:46:09;27.80;1.00
32895;DHT22;19251;49.484;8.260;2022-08-06T18:51:12;27.90;1.00
32895;DHT22;19251;49.484;8.260;2022-08-06T18:56:14;27.30;1.00
32895;DHT22;19251;49.484;8.260;2022-08-06T19:01:18;27.50;1.00
32895;DHT22;19251;49.484;8.260;2022-08-06T19:06:22;27.10;1.00
32895;DHT22;19251;49.484;8.260;2022-08-06T19:11:30;27.10;1.00
32895;DHT22;19251;49.484;8.260;2022-08-06T19:16:41;26.80;1.00
32895;DHT22;19251;49.484;8.260;2022-08-06T19:21:51;26.60;1.00
32895;DHT22;19251;49.484;8.260;2022-08-06T19:26:54;26.60;1.00
32895;DHT22;19251;49.484;8.260;2022-08-06T19:31:57;26.20;1.00
32895;DHT22;19251;49.484;8.260;2022-08-06T19:36:59;26.20;1.00
32895;DHT22;19251;49.484;8.260;2022-08-06T19:42:10;25.70;1.00
32895;DHT22;19251;49.484;8.260;2022-08-06T19:47:33;25.40;1.00
32895;DHT22;19251;49.484;8.260;2022-08-06T19:52:39;25.10;1.00
32895;DHT22;19251;49.484;8.260;2022-08-06T19:57:48;25.10;1.00
32895;DHT22;19251;49.484;8.260;2022-08-06T20:07:56;24.70;1.00
32895;DHT22;19251;49.484;8.260;2022-08-06T20:13:18;24.40;1.00
32895;DHT22;19251;49.484;8.260;2022-08-06T20:18:23;24.40;1.00
32895;DHT22;19251;49.484;8.260;2022-08-06T20:23:30;24.30;1.00
32895;DHT22;19251;49.484;8.260;2022-08-06T20:28:42;24.20;1.00
32895;DHT22;19251;49.484;8.260;2022-08-06T20:34:04;23.90;1.00
32895;DHT22;19251;49.484;8.260;2022-08-06T20:39:09;23.60;1.00
32895;DHT22;19251;49.484;8.260;2022-08-06T20:44:14;23.80;1.00
32895;DHT22;19251;49.484;8.260;2022-08-06T20:49:21;23.60;1.00
32895;DHT22;19251;49.484;8.260;2022-08-06T20:54:43;23.30;1.00
32895;DHT22;19251;49.484;8.260;2022-08-06T20:59:53;23.40;1.00
32895;DHT22;19251;49.484;8.260;2022-08-06T21:04:57;23.20;1.00
32895;DHT22;19251;49.484;8.260;2022-08-06T21:10:19;23.10;1.70
32895;DHT22;19251;49.484;8.260;2022-08-06T21:15:25;22.60;1.00
32895;DHT22;19251;49.484;8.260;2022-08-06T21:20:49;22.80;1.60
32895;DHT22;19251;49.484;8.260;2022-08-06T21:25:54;22.70;2.00
32895;DHT22;19251;49.484;8.260;2022-08-06T21:31:00;22.60;2.30
32895;DHT22;19251;49.484;8.260;2022-08-06T21:36:10;22.30;2.50
32895;DHT22;19251;49.484;8.260;2022-08-06T21:41:20;22.00;2.70
32895;DHT22;19251;49.484;8.260;2022-08-06T21:46:49;21.80;2.70
32895;DHT22;19251;49.484;8.260;2022-08-06T21:52:01;21.70;2.70
32895;DHT22;19251;49.484;8.260;2022-08-06T21:57:04;21.50;2.70
32895;DHT22;19251;49.484;8.260;2022-08-06T22:02:13;21.30;3.30
32895;DHT22;19251;49.484;8.260;2022-08-06T22:07:22;21.40;3.80
32895;DHT22;19251;49.484;8.260;2022-08-06T22:12:26;21.20;4.10
32895;DHT22;19251;49.484;8.260;2022-08-06T22:17:43;20.90;4.20
32895;DHT22;19251;49.484;8.260;2022-08-06T22:23:03;21.00;4.50
32895;DHT22;19251;49.484;8.260;2022-08-06T22:28:09;21.00;4.70
32895;DHT22;19251;49.484;8.260;2022-08-06T22:33:25;20.80;4.40
32895;DHT22;19251;49.484;8.260;2022-08-06T22:43:33;20.50;4.60
32895;DHT22;19251;49.484;8.260;2022-08-06T22:48:55;20.50;5.10
32895;DHT22;19251;49.484;8.260;2022-08-06T22:54:00;20.40;5.10
32895;DHT22;19251;49.484;8.260;2022-08-06T22:59:22;20.50;6.60
32895;DHT22;19251;49.484;8.260;2022-08-06T23:04:44;20.30;6.10
32895;DHT22;19251;49.484;8.260;2022-08-06T23:09:47;20.20;6.30
32895;DHT22;19251;49.484;8.260;2022-08-06T23:14:52;20.10;6.40
32895;DHT22;19251;49.484;8.260;2022-08-06T23:19:56;20.00;6.60
32895;DHT22;19251;49.484;8.260;2022-08-06T23:24:59;20.00;6.80
32895;DHT22;19251;49.484;8.260;2022-08-06T23:30:21;19.80;7.00
32895;DHT22;19251;49.484;8.260;2022-08-06T23:35:27;19.60;6.70
32895;DHT22;19251;49.484;8.260;2022-08-06T23:40:39;19.70;7.50
32895;DHT22;19251;49.484;8.260;2022-08-06T23:45:43;19.40;7.10
32895;DHT22;19251;49.484;8.260;2022-08-06T23:50:49;19.30;8.00
32895;DHT22;19251;49.484;8.260;2022-08-06T23:55:55;19.30;7.60
